Daniel Field
KDNL : now visible

Airfield :











YOU CAN JOIN US ON...

 
LOGIN :

Register | Disclaimer

   EN    FR    IT 

 









Legend :    VFR   Marginal VFR   IFR   Intensive IFR   Very Intensive IFR
Visi :
Ceiling :
>= 8 km
>= 3000ft
5 to 8 km
1000 to 3000 ft
1500m to 5 km
500 to 1000 ft
800 to 1500m
200 to 500 ft
< 800m
< 200 ft
Symbols :   Thunderstorms  Fog  Heavy snow  Heavy precipitations  Wind > 20 kt







- Airport Elevation : 423 ft


KDNL - Daniel Field

CURRENT METAR :
  • 210553Z AUTO 27003KT 10SM CLR 28/21 A3005 RMK AO2 SLP168 T02780206 10328 20278 58003 $

EXPIRED METARs :
  • 210453Z AUTO 29004KT 10SM CLR 28/21 A3006 RMK AO2 SLP174 T02830206 403500228 $
  • 210353Z AUTO 22004KT 10SM SCT050 29/20 A3006 RMK AO2 SLP172 T02890200 $

TAF KDNL
Valid from the 21 at 06:00 until the 22 at 06:00 UTC


210523Z 2106/2206 VRB04KT P6SM SKC
FM211500 22008KT P6SM SCT050
FM220200 21003KT P6SM SKC
KZTL FIR / North America



MET'MAP, your aeronautical weather chart ! - Copyright ORBIFLY December 2007 - Disclaimer

ORBIFLY MET'MAP TEAM :

Programming & Development : Alexandra Zaïnal
Concept & Development : Baudouin d'Aumeries
Co-Development & Prog : Marc-Olivier Méhu
Technical & hardware support : Manuel Goepfert

Contact : metmap@orbifly.com




SOURCES & CREDITS :

   NOAA       Earth
Advisory